createdAt,value
2023-03-23T15:58:20.595Z,12.10
2023-03-23T16:00:47.332Z,12.00
2023-03-23T16:03:21.498Z,12.00
2023-03-23T16:09:17.919Z,11.90
2023-03-23T16:11:44.711Z,11.80
2023-03-23T16:14:11.300Z,11.70
2023-03-23T16:16:58.960Z,11.60
2023-03-23T16:19:25.824Z,11.60
2023-03-23T16:21:58.745Z,11.50
2023-03-23T16:24:38.056Z,11.50
2023-03-23T16:27:30.979Z,11.40
2023-03-23T16:30:15.246Z,11.40
2023-03-23T16:32:57.996Z,11.30
2023-03-23T16:35:28.385Z,11.30
2023-03-23T16:38:07.440Z,11.20
2023-03-23T16:40:35.326Z,11.20
2023-03-23T16:43:09.279Z,11.10
2023-03-23T16:45:36.424Z,11.10
2023-03-23T16:48:03.148Z,11.10
2023-03-23T16:50:30.078Z,11.00
2023-03-23T16:52:56.858Z,10.90
2023-03-23T16:55:26.187Z,11.00
2023-03-23T16:58:17.334Z,11.00
2023-03-23T17:00:44.280Z,11.00
2023-03-23T17:03:11.361Z,11.10
2023-03-23T17:05:57.152Z,11.10
2023-03-23T17:08:23.904Z,11.10
2023-03-23T17:10:50.548Z,11.10
2023-03-23T17:13:17.487Z,11.10
2023-03-23T17:15:47.209Z,11.10
2023-03-23T17:18:14.242Z,11.10
2023-03-23T17:20:40.844Z,11.10
2023-03-23T17:23:07.490Z,11.10
2023-03-23T17:25:34.155Z,11.10
2023-03-23T17:28:05.851Z,11.00
2023-03-23T17:30:33.897Z,11.00
2023-03-23T17:33:00.571Z,11.00
2023-03-23T17:35:27.202Z,11.00
2023-03-23T17:37:56.114Z,11.00
2023-03-23T17:40:22.853Z,10.90
2023-03-23T17:42:49.486Z,10.90
2023-03-23T17:45:16.236Z,10.90
2023-03-23T17:47:42.884Z,10.90
2023-03-23T17:50:11.253Z,10.90
2023-03-23T17:52:39.212Z,10.90
2023-03-23T17:55:06.099Z,10.90
2023-03-23T17:57:33.492Z,10.90
2023-03-23T18:00:00.146Z,10.90
2023-03-23T18:02:26.849Z,10.90
2023-03-23T18:04:53.515Z,10.90
2023-03-23T18:07:23.494Z,10.90
2023-03-23T18:09:50.583Z,10.90
2023-03-23T18:12:17.750Z,10.90
2023-03-23T18:14:44.520Z,10.90
2023-03-23T18:17:12.376Z,10.90
2023-03-23T18:19:39.056Z,10.80
2023-03-23T18:22:05.791Z,10.80
2023-03-23T18:24:32.381Z,10.80
2023-03-23T18:27:03.990Z,10.80
2023-03-23T18:29:30.990Z,10.70
2023-03-23T18:31:57.678Z,10.70
2023-03-23T18:34:24.386Z,10.70
2023-03-23T18:37:12.539Z,10.70
2023-03-23T18:39:59.549Z,10.70
2023-03-23T18:42:35.401Z,10.70
2023-03-23T18:45:24.589Z,10.70
2023-03-23T18:48:00.446Z,10.70
2023-03-23T18:50:27.230Z,10.80
2023-03-23T18:52:55.801Z,10.80
2023-03-23T18:55:23.862Z,10.80
2023-03-23T18:58:09.446Z,10.80
2023-03-23T19:00:37.207Z,10.80
2023-03-23T19:03:04.665Z,10.70
2023-03-23T19:05:31.760Z,10.70
2023-03-23T19:07:58.460Z,10.70
2023-03-23T19:10:33.782Z,10.70
2023-03-23T19:13:00.459Z,10.80
2023-03-23T19:15:30.512Z,10.70
2023-03-23T19:17:57.373Z,10.70
2023-03-23T19:22:56.890Z,10.80
2023-03-23T19:25:23.606Z,10.80
2023-03-23T19:30:21.199Z,10.80
2023-03-23T19:32:48.405Z,10.70
2023-03-23T19:37:44.829Z,10.70
2023-03-23T19:40:33.806Z,10.70
2023-03-23T19:42:58.888Z,10.70
2023-03-23T19:45:25.584Z,10.70
2023-03-23T19:47:55.347Z,10.70
2023-03-23T19:50:22.060Z,10.70
2023-03-23T19:52:48.714Z,10.60
2023-03-23T19:55:15.340Z,10.60
2023-03-23T19:57:43.526Z,10.60
2023-03-23T20:00:13.522Z,10.60
2023-03-23T20:02:40.434Z,10.60
2023-03-23T20:05:08.611Z,10.70
2023-03-23T20:07:59.486Z,10.70
2023-03-23T20:10:26.126Z,10.70
2023-03-23T20:12:52.779Z,10.70
2023-03-23T20:15:19.417Z,10.70
2023-03-23T20:20:53.898Z,10.70
2023-03-23T20:23:20.502Z,10.70
2023-03-23T20:25:50.322Z,10.70
2023-03-23T20:28:17.304Z,10.70
2023-03-23T20:30:43.974Z,10.70
2023-03-23T20:33:10.720Z,10.70
2023-03-23T20:35:38.465Z,10.70
2023-03-23T20:38:05.214Z,10.70
2023-03-23T20:40:31.992Z,10.70
2023-03-23T20:42:58.794Z,10.70
2023-03-23T20:45:25.485Z,10.70
2023-03-23T20:47:53.736Z,10.60
2023-03-23T20:50:20.392Z,10.50
2023-03-23T20:52:48.011Z,10.40
2023-03-23T20:55:15.317Z,10.40
2023-03-23T20:58:01.288Z,10.40
2023-03-23T21:00:28.015Z,10.40
2023-03-23T21:02:54.774Z,10.40
2023-03-23T21:05:22.379Z,10.30
2023-03-23T21:07:51.055Z,10.40
2023-03-23T21:10:17.675Z,10.30
2023-03-23T21:12:44.347Z,10.30
2023-03-23T21:15:11.469Z,10.30
2023-03-23T21:17:39.242Z,10.30
2023-03-23T21:20:07.841Z,10.30
2023-03-23T21:22:35.507Z,10.30
2023-03-23T21:25:02.554Z,10.20
2023-03-23T21:27:49.397Z,10.20
2023-03-23T21:30:16.099Z,10.20
2023-03-23T21:32:42.723Z,10.20
2023-03-23T21:35:09.369Z,10.10
2023-03-23T21:37:54.987Z,10.10
2023-03-23T21:40:21.708Z,10.10
2023-03-23T21:42:49.264Z,10.10
2023-03-23T21:45:18.466Z,10.00
2023-03-23T21:47:47.267Z,10.00
2023-03-23T21:50:14.032Z,10.00
2023-03-23T21:52:43.336Z,10.00
2023-03-23T21:55:10.078Z,10.00
2023-03-23T21:57:56.601Z,10.00
2023-03-23T22:00:23.216Z,9.90
2023-03-23T22:02:50.049Z,9.90
2023-03-23T22:05:17.711Z,9.90
2023-03-23T22:07:46.727Z,9.90
2023-03-23T22:10:13.550Z,9.90
2023-03-23T22:12:40.292Z,9.90
2023-03-23T22:15:08.133Z,9.80
2023-03-23T22:17:37.729Z,9.80
2023-03-23T22:20:05.610Z,9.70
2023-03-23T22:22:32.197Z,9.70
2023-03-23T22:24:58.845Z,9.70
2023-03-23T22:27:25.676Z,9.70
2023-03-23T22:29:52.674Z,9.70
2023-03-23T22:32:19.388Z,9.70
2023-03-23T22:34:47.319Z,9.70
2023-03-23T22:37:14.217Z,9.70
2023-03-23T22:39:40.818Z,9.80
2023-03-23T22:42:07.533Z,9.80
2023-03-23T22:44:34.417Z,9.80
2023-03-23T22:47:01.099Z,9.80
2023-03-23T22:49:27.791Z,9.80
2023-03-23T22:51:54.394Z,9.80
2023-03-23T22:54:21.129Z,9.80
2023-03-23T22:56:50.026Z,9.80
2023-03-23T22:59:16.735Z,9.80
2023-03-23T23:01:43.379Z,9.80
2023-03-23T23:04:10.167Z,9.80
2023-03-23T23:06:39.034Z,9.80
2023-03-23T23:09:06.204Z,9.80
2023-03-23T23:11:32.869Z,9.70
2023-03-23T23:13:59.556Z,9.70
2023-03-23T23:16:46.364Z,9.70
2023-03-23T23:19:13.308Z,9.60
2023-03-23T23:21:41.095Z,9.60
2023-03-23T23:24:07.707Z,9.60
2023-03-23T23:26:53.346Z,9.60
2023-03-23T23:29:19.994Z,9.50
2023-03-23T23:31:46.863Z,9.60
2023-03-23T23:34:13.510Z,9.60
2023-03-23T23:36:41.551Z,9.60
2023-03-23T23:39:08.182Z,9.60
2023-03-23T23:41:34.769Z,9.60
2023-03-23T23:44:01.553Z,9.60
2023-03-23T23:46:28.840Z,9.60
2023-03-23T23:48:55.841Z,9.60
2023-03-23T23:51:27.140Z,9.70
2023-03-23T23:53:53.782Z,9.70
2023-03-23T23:56:22.188Z,9.70
2023-03-23T23:58:48.957Z,9.60
